createdAt,value
2018-02-21T00:02:01.073Z,-3.40
2018-02-21T00:04:29.205Z,-3.40
2018-02-21T00:06:57.345Z,-3.40
2018-02-21T00:09:25.478Z,-3.80
2018-02-21T00:11:53.621Z,-3.80
2018-02-21T00:14:21.775Z,-3.80
2018-02-21T00:16:49.905Z,-4.30
2018-02-21T00:19:18.041Z,-4.40
2018-02-21T00:21:46.945Z,-4.50
2018-02-21T00:24:15.853Z,-4.30
2018-02-21T00:26:43.971Z,-4.30
2018-02-21T00:29:12.122Z,-4.30
2018-02-21T00:31:40.328Z,-4.20
2018-02-21T00:34:08.498Z,-4.20
2018-02-21T00:36:36.627Z,-4.10
2018-02-21T00:39:04.765Z,-4.00
2018-02-21T00:41:32.884Z,-3.90
2018-02-21T00:44:01.789Z,-4.10
2018-02-21T00:46:29.910Z,-4.10
2018-02-21T00:48:58.060Z,-4.10
2018-02-21T00:51:27.046Z,-4.20
2018-02-21T00:53:55.990Z,-4.20
2018-02-21T00:56:24.136Z,-4.20
2018-02-21T00:58:52.268Z,-4.10
2018-02-21T01:01:20.394Z,-4.10
2018-02-21T01:03:48.545Z,-4.20
2018-02-21T01:06:16.678Z,-4.10
2018-02-21T01:08:44.799Z,-4.00
2018-02-21T01:11:12.934Z,-4.00
2018-02-21T01:13:41.836Z,-4.10
2018-02-21T01:16:10.729Z,-4.00
2018-02-21T01:18:39.636Z,-4.00
2018-02-21T01:21:08.221Z,-4.00
2018-02-21T01:23:36.353Z,-4.00
2018-02-21T01:26:05.255Z,-4.10
2018-02-21T01:28:34.164Z,-4.10
2018-02-21T01:31:02.303Z,-4.10
2018-02-21T01:33:31.193Z,-4.00
2018-02-21T01:35:59.336Z,-4.00
2018-02-21T01:38:28.234Z,-3.90
2018-02-21T01:40:56.378Z,-4.00
2018-02-21T01:43:24.861Z,-4.00
2018-02-21T01:45:52.996Z,-4.10
2018-02-21T01:48:21.129Z,-4.10
2018-02-21T01:50:52.502Z,-4.10
2018-02-21T01:53:21.409Z,-4.20
2018-02-21T01:55:49.537Z,-4.20
2018-02-21T01:58:17.695Z,-4.20
2018-02-21T02:00:46.159Z,-4.20
2018-02-21T02:03:14.289Z,-4.30
2018-02-21T02:05:42.421Z,-4.20
2018-02-21T02:08:10.576Z,-4.20
2018-02-21T02:10:38.700Z,-4.20
2018-02-21T02:13:07.621Z,-4.30
2018-02-21T02:15:35.749Z,-4.30
2018-02-21T02:18:04.677Z,-4.40
2018-02-21T02:20:32.797Z,-4.40
2018-02-21T02:23:00.945Z,-4.40
2018-02-21T02:25:29.069Z,-4.40
2018-02-21T02:27:57.974Z,-4.50
2018-02-21T02:30:26.122Z,-4.50
2018-02-21T02:32:55.016Z,-4.60
2018-02-21T02:35:23.905Z,-4.60
2018-02-21T02:37:52.811Z,-4.50
2018-02-21T02:40:20.945Z,-4.50
2018-02-21T02:42:49.074Z,-4.50
2018-02-21T02:45:17.214Z,-4.50
2018-02-21T02:47:46.114Z,-4.60
2018-02-21T02:50:14.258Z,-4.60
2018-02-21T02:52:43.154Z,-4.60
2018-02-21T02:55:12.065Z,-4.70
2018-02-21T02:57:40.210Z,-4.70
2018-02-21T03:00:09.477Z,-5.10
2018-02-21T03:02:37.953Z,-5.10
2018-02-21T03:05:06.076Z,-5.30
2018-02-21T03:07:34.210Z,-5.50
2018-02-21T03:10:02.362Z,-5.20
2018-02-21T03:12:30.510Z,-5.00
2018-02-21T03:14:58.645Z,-5.00
2018-02-21T03:17:27.532Z,-4.90
2018-02-21T03:19:56.454Z,-5.20
2018-02-21T03:22:24.577Z,-5.20
2018-02-21T03:24:52.704Z,-5.30
2018-02-21T03:27:20.857Z,-5.10
2018-02-21T03:29:49.817Z,-4.90
2018-02-21T03:32:21.741Z,-4.90
2018-02-21T03:34:49.884Z,-4.80
2018-02-21T03:37:18.024Z,-4.70
2018-02-21T03:39:46.175Z,-4.90
2018-02-21T03:42:14.398Z,-4.80
2018-02-21T03:44:43.298Z,-4.50
2018-02-21T03:47:11.436Z,-4.60
2018-02-21T03:49:40.341Z,-4.50
2018-02-21T03:52:09.249Z,-4.50
2018-02-21T03:54:37.378Z,-4.50
2018-02-21T03:57:05.548Z,-4.50
2018-02-21T03:59:33.691Z,-4.40
2018-02-21T04:02:01.838Z,-4.50
2018-02-21T04:04:30.342Z,-4.50
2018-02-21T04:06:58.490Z,-4.50
2018-02-21T04:09:26.613Z,-4.60
2018-02-21T04:11:54.759Z,-4.60
2018-02-21T04:14:22.889Z,-4.60
2018-02-21T04:16:51.050Z,-4.40
2018-02-21T04:19:19.177Z,-4.40
2018-02-21T04:21:47.396Z,-4.50
2018-02-21T04:24:15.545Z,-4.40
2018-02-21T04:26:43.671Z,-4.30
2018-02-21T04:29:11.816Z,-4.20
2018-02-21T04:31:39.953Z,-4.20
2018-02-21T04:34:08.101Z,-4.30
2018-02-21T04:36:36.224Z,-4.00
2018-02-21T04:39:05.128Z,-4.00
2018-02-21T04:41:33.275Z,-4.10
2018-02-21T04:44:02.252Z,-4.10
2018-02-21T04:46:30.430Z,-4.10
2018-02-21T04:48:58.571Z,-4.00
2018-02-21T04:51:26.792Z,-4.00
2018-02-21T04:53:55.698Z,-3.60
2018-02-21T04:56:29.493Z,-3.60
2018-02-21T05:12:20.309Z,-3.60
2018-02-21T05:14:48.501Z,-3.60
2018-02-21T05:17:16.638Z,-3.50
2018-02-21T05:19:44.853Z,-3.50
2018-02-21T05:22:12.975Z,-3.40
2018-02-21T05:24:41.137Z,-3.40
2018-02-21T05:27:09.621Z,-3.30
2018-02-21T05:29:37.778Z,-3.30
2018-02-21T05:32:06.778Z,-3.30
2018-02-21T05:34:34.962Z,-3.30
2018-02-21T05:37:03.164Z,-3.30
2018-02-21T05:39:31.297Z,-3.30
2018-02-21T05:41:59.431Z,-3.40
2018-02-21T05:44:27.552Z,-3.40
2018-02-21T05:46:55.702Z,-3.40
2018-02-21T05:49:24.626Z,-3.40
2018-02-21T05:51:52.869Z,-3.40
2018-02-21T05:54:21.037Z,-3.50
2018-02-21T05:56:49.945Z,-3.50
2018-02-21T05:59:18.114Z,-3.50
2018-02-21T06:01:46.417Z,-3.50
2018-02-21T06:04:14.661Z,-3.50
2018-02-21T06:06:42.805Z,-3.60
2018-02-21T06:09:10.945Z,-3.60
2018-02-21T06:11:39.093Z,-3.60
2018-02-21T06:14:07.277Z,-3.60
2018-02-21T06:16:35.441Z,-3.70
2018-02-21T06:19:03.568Z,-3.70
2018-02-21T06:21:32.501Z,-3.70
2018-02-21T06:24:00.608Z,-3.70
2018-02-21T06:26:28.771Z,-3.70
2018-02-21T06:28:56.904Z,-3.70
2018-02-21T06:31:25.034Z,-3.70
2018-02-21T06:33:53.992Z,-3.70
2018-02-21T06:36:22.131Z,-3.80
2018-02-21T06:38:50.298Z,-3.60
2018-02-21T06:41:18.424Z,-3.50
2018-02-21T06:43:46.610Z,-3.40
2018-02-21T06:46:15.923Z,-3.20
2018-02-21T06:48:44.831Z,-3.10
2018-02-21T06:51:13.329Z,-3.20
2018-02-21T06:53:41.826Z,-3.00
2018-02-21T06:56:10.950Z,-2.90
2018-02-21T06:58:39.085Z,-2.70
2018-02-21T07:01:07.326Z,-2.50
2018-02-21T07:03:35.472Z,-2.40
2018-02-21T07:06:04.369Z,-2.10
2018-02-21T07:08:33.293Z,-2.10
2018-02-21T07:11:01.452Z,-2.10
2018-02-21T07:13:29.598Z,-2.00
2018-02-21T07:15:58.580Z,-1.60
2018-02-21T07:18:26.768Z,-1.70
2018-02-21T07:20:54.909Z,-1.50
2018-02-21T07:23:23.053Z,-1.40
2018-02-21T07:25:52.011Z,-1.10
2018-02-21T07:28:20.141Z,-1.10
2018-02-21T07:30:48.334Z,-1.00
2018-02-21T07:33:16.574Z,-0.50
2018-02-21T07:35:44.724Z,-0.30
2018-02-21T07:38:13.623Z,0.40
2018-02-21T07:40:41.783Z,0.40
2018-02-21T07:43:09.905Z,1.00
2018-02-21T07:45:38.878Z,2.00
2018-02-21T07:48:07.021Z,2.00
2018-02-21T07:50:35.145Z,2.70
2018-02-21T07:53:04.068Z,3.90
2018-02-21T07:55:32.196Z,3.90
2018-02-21T07:58:01.083Z,4.70
2018-02-21T08:00:30.004Z,4.90
2018-02-21T08:02:58.163Z,4.90
2018-02-21T08:05:26.285Z,5.80
2018-02-21T08:07:54.419Z,5.80
2018-02-21T08:10:22.550Z,6.00
2018-02-21T08:12:50.692Z,5.80
2018-02-21T08:15:18.812Z,6.70
2018-02-21T08:17:47.728Z,7.20
2018-02-21T08:20:15.888Z,7.20
2018-02-21T08:22:44.028Z,7.50
2018-02-21T08:25:12.918Z,8.00
2018-02-21T08:27:41.840Z,7.90
2018-02-21T08:30:09.960Z,7.80
2018-02-21T08:32:38.110Z,8.20
2018-02-21T08:35:06.354Z,8.70
2018-02-21T08:37:34.486Z,9.00
2018-02-21T08:40:02.640Z,8.80
2018-02-21T08:42:30.785Z,9.00
2018-02-21T08:44:58.917Z,9.50
2018-02-21T08:47:27.063Z,10.20
2018-02-21T08:49:55.209Z,10.30
2018-02-21T08:52:23.357Z,10.80
2018-02-21T08:54:51.521Z,11.20
2018-02-21T08:57:19.660Z,11.50
2018-02-21T08:59:48.565Z,11.70
2018-02-21T09:02:17.285Z,11.70
2018-02-21T09:04:45.408Z,11.60
2018-02-21T09:07:14.313Z,12.50
2018-02-21T09:09:42.450Z,12.50
2018-02-21T09:12:11.974Z,12.50
2018-02-21T09:14:40.364Z,12.70
2018-02-21T09:17:09.257Z,12.80
2018-02-21T09:19:37.398Z,12.80
2018-02-21T09:22:05.524Z,12.30
2018-02-21T09:24:33.656Z,11.80
2018-02-21T09:27:02.554Z,12.30
2018-02-21T09:29:31.455Z,12.70
2018-02-21T09:31:59.596Z,12.60
2018-02-21T09:34:28.509Z,13.40
2018-02-21T09:36:56.646Z,13.40
2018-02-21T09:39:24.867Z,13.10
2018-02-21T09:41:53.132Z,13.20
2018-02-21T09:44:21.415Z,12.70
2018-02-21T09:46:49.550Z,12.60
2018-02-21T09:49:18.478Z,12.90
2018-02-21T09:51:46.602Z,12.90
2018-02-21T09:54:14.822Z,12.60
2018-02-21T09:56:42.950Z,12.80
2018-02-21T09:59:11.104Z,12.80
2018-02-21T10:01:39.256Z,12.50
2018-02-21T10:04:07.375Z,13.10
2018-02-21T10:06:35.513Z,12.90
2018-02-21T10:09:03.667Z,13.30
2018-02-21T10:11:31.910Z,12.80
2018-02-21T10:14:00.054Z,13.00
2018-02-21T10:16:28.197Z,13.20
2018-02-21T10:18:56.325Z,14.00
2018-02-21T10:21:24.461Z,13.70
2018-02-21T10:23:52.572Z,14.00
2018-02-21T10:26:20.728Z,13.90
2018-02-21T10:28:49.603Z,14.10
2018-02-21T10:31:18.527Z,14.50
2018-02-21T10:33:47.398Z,14.60
2018-02-21T10:36:16.298Z,13.50
2018-02-21T10:38:44.476Z,13.50
2018-02-21T10:41:12.729Z,13.80
2018-02-21T10:43:41.635Z,13.20
2018-02-21T10:46:09.765Z,13.20
2018-02-21T10:48:37.922Z,12.80
2018-02-21T10:51:06.085Z,12.30
2018-02-21T10:53:34.208Z,13.20
2018-02-21T10:56:03.105Z,13.30
2018-02-21T10:58:32.003Z,13.70
2018-02-21T11:01:05.784Z,13.70
2018-02-21T11:03:34.734Z,13.40
2018-02-21T11:06:02.855Z,13.40
2018-02-21T11:08:31.757Z,12.70
2018-02-21T11:10:59.915Z,12.70
2018-02-21T11:13:28.918Z,12.90
2018-02-21T11:15:57.063Z,12.90
2018-02-21T11:18:25.267Z,13.00
2018-02-21T11:20:53.385Z,13.20
2018-02-21T11:23:21.529Z,14.40
2018-02-21T11:25:49.676Z,14.70
2018-02-21T11:28:17.825Z,14.20
2018-02-21T11:30:46.731Z,15.00
2018-02-21T11:33:15.632Z,15.60
2018-02-21T11:35:43.757Z,15.50
2018-02-21T11:38:11.897Z,15.10
2018-02-21T11:40:40.034Z,15.70
2018-02-21T11:43:08.184Z,15.10
2018-02-21T11:45:37.105Z,14.90
2018-02-21T11:48:05.233Z,14.90
2018-02-21T11:50:33.367Z,14.10
2018-02-21T11:53:01.517Z,14.60
2018-02-21T11:55:29.701Z,14.60
2018-02-21T11:57:57.834Z,13.80
2018-02-21T12:00:26.138Z,14.30
2018-02-21T12:02:54.277Z,14.40
2018-02-21T12:05:23.198Z,15.30
2018-02-21T12:07:51.343Z,15.20
2018-02-21T12:10:19.613Z,14.70
2018-02-21T12:12:48.054Z,14.30
2018-02-21T12:15:16.289Z,14.30
2018-02-21T12:17:44.496Z,14.40
2018-02-21T12:20:12.669Z,14.00
2018-02-21T12:22:40.801Z,14.60
2018-02-21T12:25:08.941Z,13.80
2018-02-21T12:27:37.308Z,14.10
2018-02-21T12:30:05.502Z,14.10
2018-02-21T12:32:37.274Z,13.80
2018-02-21T12:35:06.185Z,13.70
2018-02-21T12:37:35.136Z,12.80
2018-02-21T12:40:03.274Z,12.80
2018-02-21T12:42:31.405Z,13.60
2018-02-21T12:45:00.309Z,13.80
2018-02-21T12:47:28.482Z,13.80
2018-02-21T12:49:56.626Z,14.10
2018-02-21T12:52:24.802Z,13.60
2018-02-21T12:54:52.940Z,13.90
2018-02-21T12:57:22.939Z,14.10
2018-02-21T12:59:51.080Z,14.10
2018-02-21T13:02:19.213Z,13.70
2018-02-21T13:04:47.390Z,13.30
2018-02-21T13:07:17.042Z,12.70
2018-02-21T13:09:45.171Z,12.80
2018-02-21T13:12:14.101Z,12.60
2018-02-21T13:14:42.242Z,12.50
2018-02-21T13:17:10.403Z,12.20
2018-02-21T13:19:38.560Z,11.90
2018-02-21T13:22:06.714Z,11.50
2018-02-21T13:24:34.850Z,11.40
2018-02-21T13:27:02.994Z,10.70
2018-02-21T13:29:31.118Z,9.70
2018-02-21T13:31:59.267Z,9.10
2018-02-21T13:34:27.407Z,8.30
2018-02-21T13:36:56.310Z,7.60
2018-02-21T13:39:24.493Z,7.60
2018-02-21T13:41:52.642Z,7.30
2018-02-21T13:44:20.779Z,7.00
2018-02-21T13:46:48.905Z,6.80
2018-02-21T13:49:17.136Z,6.50
2018-02-21T13:51:45.286Z,6.20
2018-02-21T13:54:13.448Z,6.40
2018-02-21T13:56:41.706Z,6.30
2018-02-21T13:59:09.833Z,6.30
2018-02-21T14:01:38.802Z,6.10
2018-02-21T14:04:06.946Z,6.10
2018-02-21T14:06:35.189Z,6.00
2018-02-21T14:09:03.361Z,5.80
2018-02-21T14:11:31.486Z,5.80
2018-02-21T14:13:59.632Z,5.80
2018-02-21T14:16:27.766Z,5.30
2018-02-21T14:18:55.910Z,5.40
2018-02-21T14:21:24.853Z,5.40
2018-02-21T14:23:53.000Z,5.40
2018-02-21T14:26:21.129Z,5.20
2018-02-21T14:28:49.305Z,5.10
2018-02-21T14:31:17.850Z,5.00
2018-02-21T14:33:46.007Z,5.00
2018-02-21T14:36:14.147Z,4.90
2018-02-21T14:38:43.036Z,4.70
2018-02-21T14:41:11.192Z,4.70
2018-02-21T14:43:40.101Z,4.80
2018-02-21T14:46:08.232Z,4.70
2018-02-21T14:48:36.401Z,4.60
2018-02-21T14:51:04.594Z,4.60
2018-02-21T14:53:33.509Z,4.00
2018-02-21T14:56:01.645Z,4.00
2018-02-21T14:58:30.543Z,3.90
2018-02-21T15:00:58.696Z,3.90
2018-02-21T15:03:26.827Z,3.90
2018-02-21T15:05:54.984Z,3.90
2018-02-21T15:08:23.129Z,3.90
2018-02-21T15:10:52.042Z,3.60
2018-02-21T15:13:20.181Z,3.60
2018-02-21T15:15:48.809Z,3.50
2018-02-21T15:18:17.001Z,3.50
2018-02-21T15:20:45.266Z,3.40
2018-02-21T15:23:13.461Z,3.50
2018-02-21T15:25:41.680Z,3.40
2018-02-21T15:28:09.829Z,3.40
2018-02-21T15:30:38.753Z,3.20
2018-02-21T15:33:06.913Z,3.20
2018-02-21T15:35:35.810Z,3.20
2018-02-21T15:38:03.945Z,3.20
2018-02-21T15:40:32.075Z,3.20
2018-02-21T15:43:01.290Z,3.10
2018-02-21T15:45:29.423Z,3.00
2018-02-21T15:47:57.567Z,2.90
2018-02-21T15:50:26.478Z,2.80
2018-02-21T15:52:54.699Z,2.80
2018-02-21T15:55:22.984Z,2.70
2018-02-21T15:57:51.105Z,2.60
2018-02-21T16:00:19.240Z,2.60
2018-02-21T16:02:47.381Z,2.60
2018-02-21T16:05:15.566Z,2.50
2018-02-21T16:07:43.786Z,2.40
2018-02-21T16:10:12.153Z,2.40
2018-02-21T16:12:40.318Z,2.30
2018-02-21T16:15:09.213Z,2.20
2018-02-21T16:17:37.413Z,2.20
2018-02-21T16:20:05.560Z,2.10
2018-02-21T16:22:33.695Z,2.10
2018-02-21T16:25:01.932Z,2.00
2018-02-21T16:27:30.098Z,1.90
2018-02-21T16:29:58.227Z,1.90
2018-02-21T16:32:27.135Z,1.70
2018-02-21T16:34:55.893Z,1.70
2018-02-21T16:37:24.023Z,1.60
2018-02-21T16:39:52.305Z,1.60
2018-02-21T16:42:20.460Z,1.50
2018-02-21T16:44:48.617Z,1.40
2018-02-21T16:47:16.766Z,1.40
2018-02-21T16:49:44.983Z,1.30
2018-02-21T16:52:13.133Z,1.10
2018-02-21T16:54:41.372Z,1.10
2018-02-21T16:57:09.626Z,1.00
2018-02-21T16:59:37.801Z,1.10
2018-02-21T17:02:05.916Z,1.00
2018-02-21T17:04:34.080Z,0.90
2018-02-21T17:07:02.971Z,0.90
2018-02-21T17:09:31.861Z,0.80
2018-02-21T17:12:00.007Z,0.70
2018-02-21T17:14:28.178Z,0.70
2018-02-21T17:16:56.320Z,0.70
2018-02-21T17:19:24.434Z,0.60
2018-02-21T17:21:53.401Z,0.50
2018-02-21T17:24:21.656Z,0.50
2018-02-21T17:26:49.809Z,0.50
2018-02-21T17:29:18.065Z,0.40
2018-02-21T17:31:47.102Z,0.30
2018-02-21T17:34:15.254Z,0.20
2018-02-21T17:36:43.381Z,0.20
2018-02-21T17:39:11.512Z,0.10
2018-02-21T17:41:39.713Z,0.10
2018-02-21T17:44:07.881Z,0.10
2018-02-21T17:46:36.021Z,0.10
2018-02-21T17:49:04.165Z,0.00
2018-02-21T17:51:32.309Z,-0.10
2018-02-21T17:54:00.574Z,-0.10
2018-02-21T17:56:28.706Z,-0.20
2018-02-21T17:58:56.843Z,-0.20
2018-02-21T18:01:25.091Z,-0.20
2018-02-21T18:03:53.240Z,-0.20
2018-02-21T18:06:21.495Z,-0.30
2018-02-21T18:08:49.690Z,-0.30
2018-02-21T18:11:17.910Z,-0.30
2018-02-21T18:13:46.132Z,-0.40
2018-02-21T18:16:14.238Z,-0.50
2018-02-21T18:18:43.168Z,-0.50
2018-02-21T18:34:40.262Z,-0.70
2018-02-21T18:37:08.381Z,-0.70
2018-02-21T18:39:36.507Z,-0.80
2018-02-21T18:42:05.408Z,-0.90
2018-02-21T18:44:33.537Z,-0.90
2018-02-21T18:47:01.668Z,-0.90
2018-02-21T18:49:29.850Z,-0.90
2018-02-21T18:51:57.985Z,-0.80
2018-02-21T18:54:26.889Z,-0.80
2018-02-21T18:56:55.061Z,-0.80
2018-02-21T18:59:23.196Z,-0.90
2018-02-21T19:01:52.213Z,-1.00
2018-02-21T19:04:20.424Z,-1.00
2018-02-21T19:06:48.552Z,-0.90
2018-02-21T19:09:16.693Z,-1.00
2018-02-21T19:11:44.846Z,-1.00
2018-02-21T19:14:13.048Z,-1.00
2018-02-21T19:16:41.950Z,-1.00
2018-02-21T19:19:10.092Z,-1.00
2018-02-21T19:21:38.216Z,-1.00
2018-02-21T19:24:07.120Z,-1.10
2018-02-21T19:26:35.248Z,-1.10
2018-02-21T19:29:04.946Z,-1.10
2018-02-21T19:31:33.974Z,-1.20
2018-02-21T19:34:02.145Z,-1.20
2018-02-21T19:36:30.288Z,-1.30
2018-02-21T19:38:59.173Z,-1.40
2018-02-21T19:41:28.102Z,-1.30
2018-02-21T19:43:56.229Z,-1.30
2018-02-21T19:46:24.389Z,-1.30
2018-02-21T19:48:52.522Z,-1.30
2018-02-21T19:51:20.822Z,-1.30
2018-02-21T19:53:48.949Z,-1.20
2018-02-21T19:56:17.094Z,-1.30
2018-02-21T19:58:46.300Z,-1.30
2018-02-21T20:01:14.957Z,-1.30
2018-02-21T20:03:43.116Z,-1.40
2018-02-21T20:06:12.324Z,-1.40
2018-02-21T20:08:43.081Z,-1.40
2018-02-21T20:11:12.644Z,-1.50
2018-02-21T20:13:41.620Z,-1.50
2018-02-21T20:16:12.489Z,-1.40
2018-02-21T20:18:41.837Z,-1.40
2018-02-21T20:21:09.953Z,-1.40
2018-02-21T20:23:38.688Z,-1.50
2018-02-21T20:26:07.664Z,-1.50
2018-02-21T20:28:36.582Z,-1.40
2018-02-21T20:31:05.847Z,-1.40
2018-02-21T20:33:36.346Z,-1.50
2018-02-21T20:36:05.334Z,-1.50
2018-02-21T20:38:34.529Z,-1.50
2018-02-21T20:41:02.941Z,-1.50
2018-02-21T20:43:31.894Z,-1.60
2018-02-21T20:46:00.846Z,-1.60
2018-02-21T20:48:28.984Z,-1.60
2018-02-21T20:50:57.894Z,-1.70
2018-02-21T20:53:26.048Z,-1.70
2018-02-21T20:55:54.953Z,-1.80
2018-02-21T20:58:23.848Z,-1.80
2018-02-21T21:00:51.978Z,-1.80
2018-02-21T21:03:20.215Z,-1.70
2018-02-21T21:05:49.066Z,-1.80
2018-02-21T21:08:17.961Z,-1.80
2018-02-21T21:10:46.094Z,-1.80
2018-02-21T21:13:14.238Z,-1.80
2018-02-21T21:15:42.376Z,-1.80
2018-02-21T21:18:11.324Z,-1.90
2018-02-21T21:20:40.474Z,-2.00
2018-02-21T21:23:08.605Z,-1.80
2018-02-21T21:25:36.763Z,-1.80
2018-02-21T21:28:04.908Z,-1.90
2018-02-21T21:30:33.046Z,-1.80
2018-02-21T21:33:01.196Z,-1.90
2018-02-21T21:35:29.341Z,-1.90
2018-02-21T21:37:57.533Z,-1.90
2018-02-21T21:40:25.671Z,-2.00
2018-02-21T21:42:53.804Z,-2.00
2018-02-21T21:45:21.949Z,-2.00
2018-02-21T21:47:50.090Z,-2.10
2018-02-21T21:50:18.317Z,-2.10
2018-02-21T21:52:46.430Z,-2.10
2018-02-21T21:55:14.595Z,-2.10
2018-02-21T21:57:42.775Z,-2.10
2018-02-21T22:00:10.905Z,-2.10
2018-02-21T22:02:39.044Z,-2.10
2018-02-21T22:05:07.200Z,-2.10
2018-02-21T22:07:35.341Z,-2.20
2018-02-21T22:10:03.492Z,-2.10
2018-02-21T22:12:32.405Z,-2.20
2018-02-21T22:15:00.552Z,-2.20
2018-02-21T22:17:29.487Z,-2.20
2018-02-21T22:19:57.698Z,-2.30
2018-02-21T22:22:25.863Z,-2.30
2018-02-21T22:24:53.998Z,-2.30
2018-02-21T22:27:22.141Z,-2.30
2018-02-21T22:29:50.276Z,-2.20
2018-02-21T22:32:18.440Z,-2.30
2018-02-21T22:34:46.601Z,-2.30
2018-02-21T22:37:14.752Z,-2.30
2018-02-21T22:39:42.889Z,-2.30
2018-02-21T22:42:11.027Z,-2.20
2018-02-21T22:44:39.150Z,-2.30
2018-02-21T22:47:07.285Z,-2.30
2018-02-21T22:49:35.457Z,-2.30
2018-02-21T22:52:04.357Z,-2.30
2018-02-21T22:54:32.491Z,-2.30
2018-02-21T22:57:00.651Z,-2.30
2018-02-21T22:59:28.793Z,-2.30
2018-02-21T23:01:56.918Z,-2.30
2018-02-21T23:04:25.060Z,-2.30
2018-02-21T23:06:53.193Z,-2.40
2018-02-21T23:09:21.484Z,-2.30
2018-02-21T23:11:49.608Z,-2.40
2018-02-21T23:14:17.756Z,-2.40
2018-02-21T23:16:45.884Z,-2.50
2018-02-21T23:19:14.048Z,-2.50
2018-02-21T23:21:44.186Z,-2.50
2018-02-21T23:24:12.328Z,-2.50
2018-02-21T23:26:41.213Z,-2.60
2018-02-21T23:29:10.122Z,-2.50
2018-02-21T23:31:38.261Z,-2.50
2018-02-21T23:34:06.400Z,-2.60
2018-02-21T23:36:34.521Z,-2.60
2018-02-21T23:39:03.442Z,-2.70
2018-02-21T23:41:31.583Z,-2.70
2018-02-21T23:44:00.492Z,-2.80
2018-02-21T23:46:28.686Z,-2.80
2018-02-21T23:48:56.915Z,-2.80
2018-02-21T23:51:25.885Z,-2.90
2018-02-21T23:53:54.024Z,-2.90
2018-02-21T23:56:22.165Z,-2.80
2018-02-21T23:58:50.339Z,-2.80
